sensor_id;sensor_type;location;lat;lon;timestamp;temperature;humidity
2106;DHT22;1059;52.548;13.408;2023-05-16T00:01:21;14.70;99.90
2106;DHT22;1059;52.548;13.408;2023-05-16T00:03:49;14.70;99.90
2106;DHT22;1059;52.548;13.408;2023-05-16T00:06:17;14.70;99.90
2106;DHT22;1059;52.548;13.408;2023-05-16T00:08:44;14.60;99.90
2106;DHT22;1059;52.548;13.408;2023-05-16T00:11:11;14.60;99.90
2106;DHT22;1059;52.548;13.408;2023-05-16T00:13:38;14.50;99.90
2106;DHT22;1059;52.548;13.408;2023-05-16T00:16:07;14.40;99.90
2106;DHT22;1059;52.548;13.408;2023-05-16T00:18:34;14.40;99.90
2106;DHT22;1059;52.548;13.408;2023-05-16T00:21:02;14.40;99.90
2106;DHT22;1059;52.548;13.408;2023-05-16T00:23:30;14.40;99.90
2106;DHT22;1059;52.548;13.408;2023-05-16T00:25:57;14.30;99.90
2106;DHT22;1059;52.548;13.408;2023-05-16T00:28:24;14.30;99.90
2106;DHT22;1059;52.548;13.408;2023-05-16T00:30:51;14.20;99.90
2106;DHT22;1059;52.548;13.408;2023-05-16T00:33:18;14.20;99.90
2106;DHT22;1059;52.548;13.408;2023-05-16T00:35:45;14.10;99.90
2106;DHT22;1059;52.548;13.408;2023-05-16T00:38:12;14.10;99.90
2106;DHT22;1059;52.548;13.408;2023-05-16T00:40:40;14.00;99.90
2106;DHT22;1059;52.548;13.408;2023-05-16T00:43:07;14.00;99.90
2106;DHT22;1059;52.548;13.408;2023-05-16T00:45:34;14.00;99.90
2106;DHT22;1059;52.548;13.408;2023-05-16T00:48:01;14.00;99.90
2106;DHT22;1059;52.548;13.408;2023-05-16T00:50:28;14.00;99.90
2106;DHT22;1059;52.548;13.408;2023-05-16T00:52:55;13.90;99.90
2106;DHT22;1059;52.548;13.408;2023-05-16T00:55:22;13.80;99.90
2106;DHT22;1059;52.548;13.408;2023-05-16T00:57:51;13.80;99.90
2106;DHT22;1059;52.548;13.408;2023-05-16T01:00:18;13.80;99.90
2106;DHT22;1059;52.548;13.408;2023-05-16T01:02:45;13.70;99.90
2106;DHT22;1059;52.548;13.408;2023-05-16T01:05:12;13.70;99.90
2106;DHT22;1059;52.548;13.408;2023-05-16T01:07:39;13.80;99.90
2106;DHT22;1059;52.548;13.408;2023-05-16T01:10:07;13.70;99.90
2106;DHT22;1059;52.548;13.408;2023-05-16T01:12:37;13.60;99.90
2106;DHT22;1059;52.548;13.408;2023-05-16T01:15:12;13.60;99.90
2106;DHT22;1059;52.548;13.408;2023-05-16T01:17:48;13.60;99.90
2106;DHT22;1059;52.548;13.408;2023-05-16T01:20:25;13.40;99.90
2106;DHT22;1059;52.548;13.408;2023-05-16T01:23:04;13.40;99.90
2106;DHT22;1059;52.548;13.408;2023-05-16T01:25:45;13.30;99.90
2106;DHT22;1059;52.548;13.408;2023-05-16T01:28:19;13.30;99.90
2106;DHT22;1059;52.548;13.408;2023-05-16T01:30:46;13.20;99.90
2106;DHT22;1059;52.548;13.408;2023-05-16T01:33:13;13.20;99.90
2106;DHT22;1059;52.548;13.408;2023-05-16T01:35:46;13.20;99.90
2106;DHT22;1059;52.548;13.408;2023-05-16T01:38:22;13.00;99.90
2106;DHT22;1059;52.548;13.408;2023-05-16T01:40:54;13.00;99.90
2106;DHT22;1059;52.548;13.408;2023-05-16T01:43:29;13.10;99.90
2106;DHT22;1059;52.548;13.408;2023-05-16T01:46:03;13.00;99.90
2106;DHT22;1059;52.548;13.408;2023-05-16T01:48:38;12.80;99.90
2106;DHT22;1059;52.548;13.408;2023-05-16T01:51:10;12.80;99.90
2106;DHT22;1059;52.548;13.408;2023-05-16T01:53:38;12.80;99.90
2106;DHT22;1059;52.548;13.408;2023-05-16T01:56:10;12.60;99.90
2106;DHT22;1059;52.548;13.408;2023-05-16T01:58:43;12.60;99.90
2106;DHT22;1059;52.548;13.408;2023-05-16T02:01:12;12.40;99.90
2106;DHT22;1059;52.548;13.408;2023-05-16T02:03:39;12.40;99.90
2106;DHT22;1059;52.548;13.408;2023-05-16T02:06:06;12.40;99.90
2106;DHT22;1059;52.548;13.408;2023-05-16T02:08:33;12.40;99.90
2106;DHT22;1059;52.548;13.408;2023-05-16T02:11:00;12.20;99.90
2106;DHT22;1059;52.548;13.408;2023-05-16T02:13:26;12.10;99.90
2106;DHT22;1059;52.548;13.408;2023-05-16T02:15:55;12.00;99.90
2106;DHT22;1059;52.548;13.408;2023-05-16T02:18:21;11.90;99.90
2106;DHT22;1059;52.548;13.408;2023-05-16T02:20:49;11.80;99.90
2106;DHT22;1059;52.548;13.408;2023-05-16T02:23:16;11.80;99.90
2106;DHT22;1059;52.548;13.408;2023-05-16T02:25:42;11.80;99.90
2106;DHT22;1059;52.548;13.408;2023-05-16T02:28:09;11.70;99.90
2106;DHT22;1059;52.548;13.408;2023-05-16T02:30:36;11.70;99.90
2106;DHT22;1059;52.548;13.408;2023-05-16T02:33:04;11.50;99.90
2106;DHT22;1059;52.548;13.408;2023-05-16T02:35:31;11.50;99.90
2106;DHT22;1059;52.548;13.408;2023-05-16T02:37:58;11.50;99.90
2106;DHT22;1059;52.548;13.408;2023-05-16T02:40:25;11.50;99.90
2106;DHT22;1059;52.548;13.408;2023-05-16T02:42:52;11.50;99.90
2106;DHT22;1059;52.548;13.408;2023-05-16T02:45:19;11.50;99.90
2106;DHT22;1059;52.548;13.408;2023-05-16T02:47:46;11.50;99.90
2106;DHT22;1059;52.548;13.408;2023-05-16T02:50:14;11.50;99.90
2106;DHT22;1059;52.548;13.408;2023-05-16T02:52:41;11.60;99.90
2106;DHT22;1059;52.548;13.408;2023-05-16T02:55:08;11.50;99.90
2106;DHT22;1059;52.548;13.408;2023-05-16T02:57:35;11.50;99.90
2106;DHT22;1059;52.548;13.408;2023-05-16T03:00:03;11.40;99.90
2106;DHT22;1059;52.548;13.408;2023-05-16T03:02:30;11.50;99.90
2106;DHT22;1059;52.548;13.408;2023-05-16T03:04:57;11.50;99.90
2106;DHT22;1059;52.548;13.408;2023-05-16T03:07:25;11.50;99.90
2106;DHT22;1059;52.548;13.408;2023-05-16T03:09:52;11.50;99.90
2106;DHT22;1059;52.548;13.408;2023-05-16T03:12:19;11.40;99.90
2106;DHT22;1059;52.548;13.408;2023-05-16T03:14:46;11.40;99.90
2106;DHT22;1059;52.548;13.408;2023-05-16T03:17:13;11.40;99.90
2106;DHT22;1059;52.548;13.408;2023-05-16T03:19:39;11.40;99.90
2106;DHT22;1059;52.548;13.408;2023-05-16T03:22:06;11.40;99.90
2106;DHT22;1059;52.548;13.408;2023-05-16T03:24:34;11.30;99.90
2106;DHT22;1059;52.548;13.408;2023-05-16T03:27:01;11.30;99.90
2106;DHT22;1059;52.548;13.408;2023-05-16T03:29:29;11.40;99.90
2106;DHT22;1059;52.548;13.408;2023-05-16T03:31:56;11.40;99.90
2106;DHT22;1059;52.548;13.408;2023-05-16T03:34:23;11.40;99.90
2106;DHT22;1059;52.548;13.408;2023-05-16T03:36:50;11.40;99.90
2106;DHT22;1059;52.548;13.408;2023-05-16T03:39:18;11.50;99.90
2106;DHT22;1059;52.548;13.408;2023-05-16T03:41:46;11.50;99.90
2106;DHT22;1059;52.548;13.408;2023-05-16T03:44:13;11.50;99.90
2106;DHT22;1059;52.548;13.408;2023-05-16T03:46:39;11.40;99.90
2106;DHT22;1059;52.548;13.408;2023-05-16T03:49:06;11.40;99.90
2106;DHT22;1059;52.548;13.408;2023-05-16T03:51:33;11.50;99.90
2106;DHT22;1059;52.548;13.408;2023-05-16T03:54:00;11.40;99.90
2106;DHT22;1059;52.548;13.408;2023-05-16T03:56:27;11.40;99.90
2106;DHT22;1059;52.548;13.408;2023-05-16T03:58:55;11.40;99.90
2106;DHT22;1059;52.548;13.408;2023-05-16T04:01:22;11.40;99.90
2106;DHT22;1059;52.548;13.408;2023-05-16T04:03:50;11.30;99.90
2106;DHT22;1059;52.548;13.408;2023-05-16T04:06:16;11.20;99.90
2106;DHT22;1059;52.548;13.408;2023-05-16T04:08:43;11.20;99.90
2106;DHT22;1059;52.548;13.408;2023-05-16T04:11:10;11.20;99.90
2106;DHT22;1059;52.548;13.408;2023-05-16T04:13:37;11.30;99.90
2106;DHT22;1059;52.548;13.408;2023-05-16T04:16:06;11.30;99.90
2106;DHT22;1059;52.548;13.408;2023-05-16T04:18:33;11.30;99.90
2106;DHT22;1059;52.548;13.408;2023-05-16T04:21:00;11.40;99.90
2106;DHT22;1059;52.548;13.408;2023-05-16T04:23:27;11.40;99.90
2106;DHT22;1059;52.548;13.408;2023-05-16T04:25:54;11.40;99.90
2106;DHT22;1059;52.548;13.408;2023-05-16T04:28:21;11.40;99.90
2106;DHT22;1059;52.548;13.408;2023-05-16T04:30:48;11.40;99.90
2106;DHT22;1059;52.548;13.408;2023-05-16T04:33:17;11.30;99.90
2106;DHT22;1059;52.548;13.408;2023-05-16T04:35:44;11.30;99.90
2106;DHT22;1059;52.548;13.408;2023-05-16T04:38:10;11.10;99.90
2106;DHT22;1059;52.548;13.408;2023-05-16T04:40:37;10.80;99.90
2106;DHT22;1059;52.548;13.408;2023-05-16T04:43:04;10.80;99.90
2106;DHT22;1059;52.548;13.408;2023-05-16T04:45:32;10.80;99.90
2106;DHT22;1059;52.548;13.408;2023-05-16T04:48:00;10.80;99.90
2106;DHT22;1059;52.548;13.408;2023-05-16T04:50:28;10.90;99.90
2106;DHT22;1059;52.548;13.408;2023-05-16T04:52:55;10.90;99.90
2106;DHT22;1059;52.548;13.408;2023-05-16T04:55:22;11.00;99.90
2106;DHT22;1059;52.548;13.408;2023-05-16T04:57:49;11.00;99.90
2106;DHT22;1059;52.548;13.408;2023-05-16T05:00:16;10.80;99.90
2106;DHT22;1059;52.548;13.408;2023-05-16T05:02:44;10.80;99.90
2106;DHT22;1059;52.548;13.408;2023-05-16T05:05:11;10.80;99.90
2106;DHT22;1059;52.548;13.408;2023-05-16T05:07:39;10.70;99.90
2106;DHT22;1059;52.548;13.408;2023-05-16T05:10:08;10.70;99.90
2106;DHT22;1059;52.548;13.408;2023-05-16T05:12:36;10.60;99.90
2106;DHT22;1059;52.548;13.408;2023-05-16T05:15:03;10.70;99.90
2106;DHT22;1059;52.548;13.408;2023-05-16T05:17:30;10.70;99.90
2106;DHT22;1059;52.548;13.408;2023-05-16T05:19:57;10.60;99.90
2106;DHT22;1059;52.548;13.408;2023-05-16T05:22:24;10.60;99.90
2106;DHT22;1059;52.548;13.408;2023-05-16T05:24:53;10.70;99.90
2106;DHT22;1059;52.548;13.408;2023-05-16T05:27:20;10.80;99.90
2106;DHT22;1059;52.548;13.408;2023-05-16T05:29:47;10.90;99.90
2106;DHT22;1059;52.548;13.408;2023-05-16T05:32:14;10.80;99.90
2106;DHT22;1059;52.548;13.408;2023-05-16T05:34:40;10.80;99.90
2106;DHT22;1059;52.548;13.408;2023-05-16T05:37:08;10.90;99.90
2106;DHT22;1059;52.548;13.408;2023-05-16T05:39:34;10.90;99.90
2106;DHT22;1059;52.548;13.408;2023-05-16T05:42:03;10.90;99.90
2106;DHT22;1059;52.548;13.408;2023-05-16T05:44:30;10.90;99.90
2106;DHT22;1059;52.548;13.408;2023-05-16T05:46:58;11.00;99.90
2106;DHT22;1059;52.548;13.408;2023-05-16T05:49:25;11.10;99.90
2106;DHT22;1059;52.548;13.408;2023-05-16T05:51:52;11.00;99.90
2106;DHT22;1059;52.548;13.408;2023-05-16T05:54:19;11.10;99.90
2106;DHT22;1059;52.548;13.408;2023-05-16T05:56:46;11.00;99.90
2106;DHT22;1059;52.548;13.408;2023-05-16T05:59:14;11.00;99.90
2106;DHT22;1059;52.548;13.408;2023-05-16T06:01:41;11.00;99.90
2106;DHT22;1059;52.548;13.408;2023-05-16T06:04:09;11.00;99.90
2106;DHT22;1059;52.548;13.408;2023-05-16T06:06:36;11.00;99.90
2106;DHT22;1059;52.548;13.408;2023-05-16T06:09:04;11.00;99.90
2106;DHT22;1059;52.548;13.408;2023-05-16T06:11:31;11.00;99.90
2106;DHT22;1059;52.548;13.408;2023-05-16T06:13:58;10.90;99.90
2106;DHT22;1059;52.548;13.408;2023-05-16T06:16:26;11.00;99.90
2106;DHT22;1059;52.548;13.408;2023-05-16T06:18:53;11.00;99.90
2106;DHT22;1059;52.548;13.408;2023-05-16T06:21:20;11.10;99.90
2106;DHT22;1059;52.548;13.408;2023-05-16T06:23:47;11.00;99.90
2106;DHT22;1059;52.548;13.408;2023-05-16T06:26:14;11.10;99.90
2106;DHT22;1059;52.548;13.408;2023-05-16T06:28:40;11.10;99.90
2106;DHT22;1059;52.548;13.408;2023-05-16T06:31:07;11.10;99.90
2106;DHT22;1059;52.548;13.408;2023-05-16T06:33:36;11.20;99.90
2106;DHT22;1059;52.548;13.408;2023-05-16T06:36:03;11.30;99.90
2106;DHT22;1059;52.548;13.408;2023-05-16T06:38:30;11.40;99.90
2106;DHT22;1059;52.548;13.408;2023-05-16T06:40:57;11.50;99.90
2106;DHT22;1059;52.548;13.408;2023-05-16T06:43:24;11.40;99.90
2106;DHT22;1059;52.548;13.408;2023-05-16T06:45:50;11.40;99.90
2106;DHT22;1059;52.548;13.408;2023-05-16T06:48:17;11.40;99.90
2106;DHT22;1059;52.548;13.408;2023-05-16T06:50:48;11.50;99.90
2106;DHT22;1059;52.548;13.408;2023-05-16T06:53:15;11.60;99.90
2106;DHT22;1059;52.548;13.408;2023-05-16T06:55:42;11.60;99.90
2106;DHT22;1059;52.548;13.408;2023-05-16T06:58:09;11.70;99.90
2106;DHT22;1059;52.548;13.408;2023-05-16T07:00:36;11.70;99.90
2106;DHT22;1059;52.548;13.408;2023-05-16T07:03:03;11.60;99.90
2106;DHT22;1059;52.548;13.408;2023-05-16T07:05:30;11.70;99.90
2106;DHT22;1059;52.548;13.408;2023-05-16T07:07:58;11.60;99.90
2106;DHT22;1059;52.548;13.408;2023-05-16T07:10:26;11.50;99.90
2106;DHT22;1059;52.548;13.408;2023-05-16T07:12:52;11.40;99.90
2106;DHT22;1059;52.548;13.408;2023-05-16T07:15:20;11.40;99.90
2106;DHT22;1059;52.548;13.408;2023-05-16T07:17:46;11.40;99.90
2106;DHT22;1059;52.548;13.408;2023-05-16T07:20:15;11.40;99.90
2106;DHT22;1059;52.548;13.408;2023-05-16T07:22:42;11.20;99.90
2106;DHT22;1059;52.548;13.408;2023-05-16T07:25:10;11.30;99.90
2106;DHT22;1059;52.548;13.408;2023-05-16T07:27:38;11.40;99.90
2106;DHT22;1059;52.548;13.408;2023-05-16T07:30:10;11.40;99.90
2106;DHT22;1059;52.548;13.408;2023-05-16T07:32:37;11.30;99.90
2106;DHT22;1059;52.548;13.408;2023-05-16T07:35:04;11.20;99.90
2106;DHT22;1059;52.548;13.408;2023-05-16T07:37:31;11.30;99.90
2106;DHT22;1059;52.548;13.408;2023-05-16T07:39:58;11.40;99.90
2106;DHT22;1059;52.548;13.408;2023-05-16T07:42:26;11.50;99.90
2106;DHT22;1059;52.548;13.408;2023-05-16T07:44:53;11.70;99.90
2106;DHT22;1059;52.548;13.408;2023-05-16T07:47:20;11.90;99.90
2106;DHT22;1059;52.548;13.408;2023-05-16T07:49:47;12.00;99.90
2106;DHT22;1059;52.548;13.408;2023-05-16T07:52:13;12.00;99.90
2106;DHT22;1059;52.548;13.408;2023-05-16T07:54:40;12.00;99.90
2106;DHT22;1059;52.548;13.408;2023-05-16T07:57:07;12.00;99.90
2106;DHT22;1059;52.548;13.408;2023-05-16T07:59:36;12.10;99.90
2106;DHT22;1059;52.548;13.408;2023-05-16T08:02:03;12.20;99.90
2106;DHT22;1059;52.548;13.408;2023-05-16T08:04:30;12.10;99.90
2106;DHT22;1059;52.548;13.408;2023-05-16T08:06:57;12.30;99.90
2106;DHT22;1059;52.548;13.408;2023-05-16T08:09:24;12.30;99.90
2106;DHT22;1059;52.548;13.408;2023-05-16T08:11:51;12.30;99.90
2106;DHT22;1059;52.548;13.408;2023-05-16T08:14:18;12.30;99.90
2106;DHT22;1059;52.548;13.408;2023-05-16T08:16:47;11.90;99.90
2106;DHT22;1059;52.548;13.408;2023-05-16T08:19:14;11.90;99.90
2106;DHT22;1059;52.548;13.408;2023-05-16T08:21:40;11.90;99.90
2106;DHT22;1059;52.548;13.408;2023-05-16T08:24:07;11.90;99.90
2106;DHT22;1059;52.548;13.408;2023-05-16T08:26:35;11.70;99.90
2106;DHT22;1059;52.548;13.408;2023-05-16T08:29:03;11.50;99.90
2106;DHT22;1059;52.548;13.408;2023-05-16T08:31:30;11.50;99.90
2106;DHT22;1059;52.548;13.408;2023-05-16T08:33:58;11.60;99.90
2106;DHT22;1059;52.548;13.408;2023-05-16T08:36:26;11.70;99.90
2106;DHT22;1059;52.548;13.408;2023-05-16T08:38:54;11.70;99.90
2106;DHT22;1059;52.548;13.408;2023-05-16T08:41:21;11.80;99.90
2106;DHT22;1059;52.548;13.408;2023-05-16T08:43:48;12.00;99.90
2106;DHT22;1059;52.548;13.408;2023-05-16T08:46:17;12.00;99.90
2106;DHT22;1059;52.548;13.408;2023-05-16T08:48:50;12.00;99.90
2106;DHT22;1059;52.548;13.408;2023-05-16T08:51:20;11.90;99.90
2106;DHT22;1059;52.548;13.408;2023-05-16T08:53:51;11.90;99.90
2106;DHT22;1059;52.548;13.408;2023-05-16T08:56:20;11.90;99.90
2106;DHT22;1059;52.548;13.408;2023-05-16T08:58:48;12.00;99.90
2106;DHT22;1059;52.548;13.408;2023-05-16T09:01:16;12.00;99.90
2106;DHT22;1059;52.548;13.408;2023-05-16T09:03:45;11.80;99.90
2106;DHT22;1059;52.548;13.408;2023-05-16T09:06:12;11.80;99.90
2106;DHT22;1059;52.548;13.408;2023-05-16T09:08:42;11.80;99.90
2106;DHT22;1059;52.548;13.408;2023-05-16T09:11:08;11.90;99.90
2106;DHT22;1059;52.548;13.408;2023-05-16T09:13:36;12.00;99.90
2106;DHT22;1059;52.548;13.408;2023-05-16T09:16:10;12.10;99.90
2106;DHT22;1059;52.548;13.408;2023-05-16T09:18:38;12.30;99.90
2106;DHT22;1059;52.548;13.408;2023-05-16T09:21:05;12.20;99.90
2106;DHT22;1059;52.548;13.408;2023-05-16T09:23:33;12.20;99.90
2106;DHT22;1059;52.548;13.408;2023-05-16T09:26:01;12.20;99.90
2106;DHT22;1059;52.548;13.408;2023-05-16T09:28:29;12.10;99.90
2106;DHT22;1059;52.548;13.408;2023-05-16T09:30:56;12.20;99.90
2106;DHT22;1059;52.548;13.408;2023-05-16T09:33:26;12.30;99.90
2106;DHT22;1059;52.548;13.408;2023-05-16T09:35:55;12.30;99.90
2106;DHT22;1059;52.548;13.408;2023-05-16T09:38:24;12.40;99.90
2106;DHT22;1059;52.548;13.408;2023-05-16T09:40:51;12.50;99.90
2106;DHT22;1059;52.548;13.408;2023-05-16T09:43:23;12.50;99.90
2106;DHT22;1059;52.548;13.408;2023-05-16T09:45:51;12.70;99.90
2106;DHT22;1059;52.548;13.408;2023-05-16T09:48:20;12.80;99.90
2106;DHT22;1059;52.548;13.408;2023-05-16T09:50:50;12.70;99.90
2106;DHT22;1059;52.548;13.408;2023-05-16T09:53:21;12.80;99.90
2106;DHT22;1059;52.548;13.408;2023-05-16T09:55:58;12.80;99.90
2106;DHT22;1059;52.548;13.408;2023-05-16T09:58:29;12.70;99.90
2106;DHT22;1059;52.548;13.408;2023-05-16T10:00:57;12.60;99.90
2106;DHT22;1059;52.548;13.408;2023-05-16T10:03:24;12.50;99.90
2106;DHT22;1059;52.548;13.408;2023-05-16T10:05:52;12.40;99.90
2106;DHT22;1059;52.548;13.408;2023-05-16T10:08:20;12.50;99.90
2106;DHT22;1059;52.548;13.408;2023-05-16T10:10:50;12.40;99.90
2106;DHT22;1059;52.548;13.408;2023-05-16T10:13:18;12.50;99.90
2106;DHT22;1059;52.548;13.408;2023-05-16T10:15:48;12.50;99.90
2106;DHT22;1059;52.548;13.408;2023-05-16T10:18:16;12.40;99.90
2106;DHT22;1059;52.548;13.408;2023-05-16T10:20:46;12.50;99.90
2106;DHT22;1059;52.548;13.408;2023-05-16T10:23:17;12.40;99.90
2106;DHT22;1059;52.548;13.408;2023-05-16T10:25:45;12.50;99.90
2106;DHT22;1059;52.548;13.408;2023-05-16T10:28:13;12.50;99.90
2106;DHT22;1059;52.548;13.408;2023-05-16T10:30:41;12.50;99.90
2106;DHT22;1059;52.548;13.408;2023-05-16T10:33:11;12.50;99.90
2106;DHT22;1059;52.548;13.408;2023-05-16T10:35:38;12.40;99.90
2106;DHT22;1059;52.548;13.408;2023-05-16T10:38:07;12.50;99.90
2106;DHT22;1059;52.548;13.408;2023-05-16T10:40:35;12.50;99.90
2106;DHT22;1059;52.548;13.408;2023-05-16T10:43:04;12.60;99.90
2106;DHT22;1059;52.548;13.408;2023-05-16T10:45:31;12.80;99.90
2106;DHT22;1059;52.548;13.408;2023-05-16T10:48:00;12.80;99.90
2106;DHT22;1059;52.548;13.408;2023-05-16T10:50:37;12.50;99.90
2106;DHT22;1059;52.548;13.408;2023-05-16T10:53:17;12.50;99.90
2106;DHT22;1059;52.548;13.408;2023-05-16T10:55:48;12.60;99.90
2106;DHT22;1059;52.548;13.408;2023-05-16T10:58:23;12.60;99.90
2106;DHT22;1059;52.548;13.408;2023-05-16T11:01:18;12.40;99.90
2106;DHT22;1059;52.548;13.408;2023-05-16T11:04:05;12.50;99.90
2106;DHT22;1059;52.548;13.408;2023-05-16T11:06:42;12.40;99.90
2106;DHT22;1059;52.548;13.408;2023-05-16T11:09:21;12.50;99.90
2106;DHT22;1059;52.548;13.408;2023-05-16T11:11:54;12.50;99.90
2106;DHT22;1059;52.548;13.408;2023-05-16T11:14:22;12.70;99.90
2106;DHT22;1059;52.548;13.408;2023-05-16T11:16:51;12.80;99.90
2106;DHT22;1059;52.548;13.408;2023-05-16T11:19:29;12.90;99.90
2106;DHT22;1059;52.548;13.408;2023-05-16T11:24:55;13.00;99.90
2106;DHT22;1059;52.548;13.408;2023-05-16T11:27:27;13.10;99.90
2106;DHT22;1059;52.548;13.408;2023-05-16T11:30:00;13.10;99.90
2106;DHT22;1059;52.548;13.408;2023-05-16T11:32:29;13.20;99.90
2106;DHT22;1059;52.548;13.408;2023-05-16T11:34:57;13.20;99.90
2106;DHT22;1059;52.548;13.408;2023-05-16T11:37:25;13.10;99.90
2106;DHT22;1059;52.548;13.408;2023-05-16T11:39:52;13.00;99.90
2106;DHT22;1059;52.548;13.408;2023-05-16T11:42:19;13.10;99.90
2106;DHT22;1059;52.548;13.408;2023-05-16T11:44:46;13.00;99.90
2106;DHT22;1059;52.548;13.408;2023-05-16T11:47:13;13.10;99.90
2106;DHT22;1059;52.548;13.408;2023-05-16T11:49:40;12.90;99.90
2106;DHT22;1059;52.548;13.408;2023-05-16T11:52:08;13.00;99.90
2106;DHT22;1059;52.548;13.408;2023-05-16T11:54:36;13.10;99.90
2106;DHT22;1059;52.548;13.408;2023-05-16T11:57:04;13.30;99.90
2106;DHT22;1059;52.548;13.408;2023-05-16T11:59:31;13.40;99.90
2106;DHT22;1059;52.548;13.408;2023-05-16T12:02:02;13.50;99.90
2106;DHT22;1059;52.548;13.408;2023-05-16T12:04:30;13.50;99.90
2106;DHT22;1059;52.548;13.408;2023-05-16T12:06:59;13.50;99.90
2106;DHT22;1059;52.548;13.408;2023-05-16T12:09:26;13.50;99.90
2106;DHT22;1059;52.548;13.408;2023-05-16T12:11:55;13.60;99.90
2106;DHT22;1059;52.548;13.408;2023-05-16T12:14:22;13.70;99.90
2106;DHT22;1059;52.548;13.408;2023-05-16T12:16:51;13.80;99.90
2106;DHT22;1059;52.548;13.408;2023-05-16T12:19:18;14.00;99.90
2106;DHT22;1059;52.548;13.408;2023-05-16T12:21:45;14.20;99.90
2106;DHT22;1059;52.548;13.408;2023-05-16T12:24:12;14.00;99.90
2106;DHT22;1059;52.548;13.408;2023-05-16T12:26:40;14.00;99.90
2106;DHT22;1059;52.548;13.408;2023-05-16T12:29:10;14.30;99.90
2106;DHT22;1059;52.548;13.408;2023-05-16T12:31:38;15.20;99.90
2106;DHT22;1059;52.548;13.408;2023-05-16T12:34:15;15.30;99.90
2106;DHT22;1059;52.548;13.408;2023-05-16T12:36:42;15.20;99.90
2106;DHT22;1059;52.548;13.408;2023-05-16T12:39:11;14.80;99.90
2106;DHT22;1059;52.548;13.408;2023-05-16T12:41:39;14.80;99.90
2106;DHT22;1059;52.548;13.408;2023-05-16T12:44:11;14.90;99.90
2106;DHT22;1059;52.548;13.408;2023-05-16T12:46:42;14.80;99.90
2106;DHT22;1059;52.548;13.408;2023-05-16T12:49:09;14.50;99.90
2106;DHT22;1059;52.548;13.408;2023-05-16T12:51:36;14.50;99.90
2106;DHT22;1059;52.548;13.408;2023-05-16T12:54:10;14.60;99.90
2106;DHT22;1059;52.548;13.408;2023-05-16T12:56:38;14.40;99.90
2106;DHT22;1059;52.548;13.408;2023-05-16T12:59:06;14.40;99.90
2106;DHT22;1059;52.548;13.408;2023-05-16T13:01:35;14.80;99.90
2106;DHT22;1059;52.548;13.408;2023-05-16T13:04:02;15.30;99.90
2106;DHT22;1059;52.548;13.408;2023-05-16T13:06:29;15.60;99.90
2106;DHT22;1059;52.548;13.408;2023-05-16T13:08:56;15.70;99.90
2106;DHT22;1059;52.548;13.408;2023-05-16T13:11:23;15.90;99.90
2106;DHT22;1059;52.548;13.408;2023-05-16T13:13:51;15.90;99.90
2106;DHT22;1059;52.548;13.408;2023-05-16T13:16:18;16.00;99.90
2106;DHT22;1059;52.548;13.408;2023-05-16T13:18:46;16.20;99.90
2106;DHT22;1059;52.548;13.408;2023-05-16T13:21:13;16.30;99.90
2106;DHT22;1059;52.548;13.408;2023-05-16T13:23:40;16.50;99.90
2106;DHT22;1059;52.548;13.408;2023-05-16T13:26:07;17.10;99.90
2106;DHT22;1059;52.548;13.408;2023-05-16T13:28:35;17.20;99.90
2106;DHT22;1059;52.548;13.408;2023-05-16T13:31:02;17.30;99.90
2106;DHT22;1059;52.548;13.408;2023-05-16T13:33:29;17.30;99.90
2106;DHT22;1059;52.548;13.408;2023-05-16T13:35:58;17.20;99.90
2106;DHT22;1059;52.548;13.408;2023-05-16T13:38:25;17.10;99.90
2106;DHT22;1059;52.548;13.408;2023-05-16T13:40:51;17.00;99.90
2106;DHT22;1059;52.548;13.408;2023-05-16T13:43:18;16.90;99.90
2106;DHT22;1059;52.548;13.408;2023-05-16T13:45:45;16.80;99.90
2106;DHT22;1059;52.548;13.408;2023-05-16T13:48:12;16.80;98.90
2106;DHT22;1059;52.548;13.408;2023-05-16T13:50:39;16.80;97.90
2106;DHT22;1059;52.548;13.408;2023-05-16T13:53:08;17.20;97.20
2106;DHT22;1059;52.548;13.408;2023-05-16T13:55:35;17.50;93.30
2106;DHT22;1059;52.548;13.408;2023-05-16T13:58:02;17.60;92.00
2106;DHT22;1059;52.548;13.408;2023-05-16T14:00:29;17.20;85.30
2106;DHT22;1059;52.548;13.408;2023-05-16T14:02:56;16.40;90.10
2106;DHT22;1059;52.548;13.408;2023-05-16T14:05:22;17.00;85.50
2106;DHT22;1059;52.548;13.408;2023-05-16T14:07:50;17.30;84.40
2106;DHT22;1059;52.548;13.408;2023-05-16T14:10:19;17.00;83.40
2106;DHT22;1059;52.548;13.408;2023-05-16T14:12:46;17.10;90.40
2106;DHT22;1059;52.548;13.408;2023-05-16T14:15:13;16.90;87.50
2106;DHT22;1059;52.548;13.408;2023-05-16T14:17:40;16.80;85.80
2106;DHT22;1059;52.548;13.408;2023-05-16T14:20:07;16.70;86.80
2106;DHT22;1059;52.548;13.408;2023-05-16T14:22:36;16.70;84.70
2106;DHT22;1059;52.548;13.408;2023-05-16T14:25:04;16.60;85.40
2106;DHT22;1059;52.548;13.408;2023-05-16T14:27:33;16.70;84.10
2106;DHT22;1059;52.548;13.408;2023-05-16T14:30:00;16.90;82.00
2106;DHT22;1059;52.548;13.408;2023-05-16T14:32:26;17.00;80.00
2106;DHT22;1059;52.548;13.408;2023-05-16T14:34:53;17.10;80.20
2106;DHT22;1059;52.548;13.408;2023-05-16T14:37:20;17.20;78.20
2106;DHT22;1059;52.548;13.408;2023-05-16T14:39:47;17.20;74.40
2106;DHT22;1059;52.548;13.408;2023-05-16T14:42:15;17.20;72.90
2106;DHT22;1059;52.548;13.408;2023-05-16T14:44:43;17.20;71.30
2106;DHT22;1059;52.548;13.408;2023-05-16T14:47:10;17.20;66.80
2106;DHT22;1059;52.548;13.408;2023-05-16T14:49:38;17.30;65.80
2106;DHT22;1059;52.548;13.408;2023-05-16T14:52:05;17.20;65.50
2106;DHT22;1059;52.548;13.408;2023-05-16T14:54:32;17.20;64.80
2106;DHT22;1059;52.548;13.408;2023-05-16T14:56:59;17.10;65.50
2106;DHT22;1059;52.548;13.408;2023-05-16T14:59:28;17.00;66.70
2106;DHT22;1059;52.548;13.408;2023-05-16T15:01:57;16.90;64.10
2106;DHT22;1059;52.548;13.408;2023-05-16T15:04:26;16.80;62.20
2106;DHT22;1059;52.548;13.408;2023-05-16T15:06:53;16.70;60.90
2106;DHT22;1059;52.548;13.408;2023-05-16T15:09:20;16.80;61.30
2106;DHT22;1059;52.548;13.408;2023-05-16T15:11:47;17.40;62.30
2106;DHT22;1059;52.548;13.408;2023-05-16T15:14:14;18.10;58.60
2106;DHT22;1059;52.548;13.408;2023-05-16T15:16:41;18.60;57.40
2106;DHT22;1059;52.548;13.408;2023-05-16T15:19:09;18.80;53.20
2106;DHT22;1059;52.548;13.408;2023-05-16T15:21:36;18.60;51.50
2106;DHT22;1059;52.548;13.408;2023-05-16T15:24:03;18.60;51.20
2106;DHT22;1059;52.548;13.408;2023-05-16T15:26:30;18.70;49.70
2106;DHT22;1059;52.548;13.408;2023-05-16T15:28:57;18.80;49.20
2106;DHT22;1059;52.548;13.408;2023-05-16T15:31:24;18.90;47.40
2106;DHT22;1059;52.548;13.408;2023-05-16T15:33:51;18.40;44.20
2106;DHT22;1059;52.548;13.408;2023-05-16T15:36:19;17.80;44.70
2106;DHT22;1059;52.548;13.408;2023-05-16T15:38:46;17.40;44.40
2106;DHT22;1059;52.548;13.408;2023-05-16T15:41:13;17.40;46.30
2106;DHT22;1059;52.548;13.408;2023-05-16T15:43:41;17.60;45.00
2106;DHT22;1059;52.548;13.408;2023-05-16T15:46:08;17.90;43.70
2106;DHT22;1059;52.548;13.408;2023-05-16T15:48:37;18.00;42.20
2106;DHT22;1059;52.548;13.408;2023-05-16T15:51:07;18.00;41.20
2106;DHT22;1059;52.548;13.408;2023-05-16T15:53:35;18.10;39.60